createdAt,value
2018-09-22T00:00:31.792Z,10.87
2018-09-22T00:03:00.869Z,10.82
2018-09-22T00:05:29.846Z,10.76
2018-09-22T00:07:58.965Z,10.75
2018-09-22T00:10:27.968Z,10.62
2018-09-22T00:12:56.929Z,10.56
2018-09-22T00:15:26.000Z,10.59
2018-09-22T00:17:55.676Z,10.64
2018-09-22T00:20:24.755Z,10.63
2018-09-22T00:22:53.904Z,10.60
2018-09-22T00:25:22.912Z,10.58
2018-09-22T00:27:51.895Z,10.52
2018-09-22T00:30:20.956Z,10.53
2018-09-22T00:32:50.040Z,10.52
2018-09-22T00:35:19.053Z,10.50
2018-09-22T00:37:48.131Z,10.52
2018-09-22T00:40:17.348Z,10.45
2018-09-22T00:42:46.373Z,10.42
2018-09-22T00:45:15.423Z,10.47
2018-09-22T00:47:44.384Z,10.47
2018-09-22T00:50:13.339Z,10.38
2018-09-22T00:52:42.160Z,10.38
2018-09-22T00:55:11.022Z,10.43
2018-09-22T00:57:39.998Z,10.51
2018-09-22T01:00:08.965Z,10.44
2018-09-22T01:02:37.919Z,10.36
2018-09-22T01:05:06.873Z,10.42
2018-09-22T01:07:35.689Z,10.33
2018-09-22T01:10:04.734Z,10.24
2018-09-22T01:12:33.529Z,10.22
2018-09-22T01:15:02.488Z,10.32
2018-09-22T01:17:31.416Z,10.25
2018-09-22T01:20:00.345Z,10.16
2018-09-22T01:22:29.317Z,10.15
2018-09-22T01:24:58.261Z,10.20
2018-09-22T01:27:27.182Z,10.20
2018-09-22T01:29:56.109Z,10.19
2018-09-22T01:32:24.929Z,10.22
2018-09-22T01:34:53.863Z,10.17
2018-09-22T01:37:22.712Z,10.13
2018-09-22T01:39:51.708Z,10.06
2018-09-22T01:42:20.619Z,10.09
2018-09-22T01:44:49.477Z,10.15
2018-09-22T01:47:18.309Z,10.05
2018-09-22T01:49:47.233Z,9.96
2018-09-22T01:52:16.168Z,9.91
2018-09-22T01:54:45.065Z,9.90
2018-09-22T01:57:13.912Z,9.90
2018-09-22T01:59:42.847Z,9.92
2018-09-22T02:02:11.680Z,9.89
2018-09-22T02:04:40.620Z,9.86
2018-09-22T02:07:09.567Z,9.89
2018-09-22T02:09:38.472Z,9.79
2018-09-22T02:12:08.525Z,9.73
2018-09-22T02:14:37.520Z,9.77
2018-09-22T02:17:06.402Z,9.83
2018-09-22T02:19:35.358Z,9.93
2018-09-22T02:22:04.226Z,10.04
2018-09-22T02:24:33.128Z,10.10
2018-09-22T02:27:02.079Z,10.09
2018-09-22T02:29:31.018Z,10.12
2018-09-22T02:31:59.839Z,10.10
2018-09-22T02:34:28.745Z,10.04
2018-09-22T02:36:57.665Z,9.95
2018-09-22T02:39:26.573Z,9.85
2018-09-22T02:41:55.502Z,9.92
2018-09-22T02:44:24.513Z,9.87
2018-09-22T02:46:53.552Z,9.87
2018-09-22T02:49:22.474Z,9.77
2018-09-22T02:51:51.368Z,9.76
2018-09-22T02:54:20.240Z,9.71
2018-09-22T02:56:49.182Z,9.71
2018-09-22T02:59:18.016Z,9.79
2018-09-22T03:01:46.874Z,9.80
2018-09-22T03:04:15.740Z,9.77
2018-09-22T03:06:44.576Z,9.74
2018-09-22T03:09:13.500Z,9.72
2018-09-22T03:11:42.430Z,9.79
2018-09-22T03:14:11.378Z,9.81
2018-09-22T03:16:40.893Z,9.74
2018-09-22T03:19:09.897Z,9.70
2018-09-22T03:21:38.858Z,9.69
2018-09-22T03:24:08.775Z,9.71
2018-09-22T03:26:37.673Z,9.78
2018-09-22T03:29:07.705Z,9.84
2018-09-22T03:31:36.683Z,9.84
2018-09-22T03:34:05.549Z,9.78
2018-09-22T03:36:34.590Z,9.73
2018-09-22T03:39:03.638Z,9.69
2018-09-22T03:41:33.578Z,9.70
2018-09-22T03:44:02.390Z,9.78
2018-09-22T03:46:31.375Z,9.86
2018-09-22T03:49:00.404Z,9.82
2018-09-22T03:51:29.370Z,9.80
2018-09-22T03:53:58.394Z,9.85
2018-09-22T03:56:27.354Z,9.86
2018-09-22T03:58:56.243Z,9.92
2018-09-22T04:01:26.258Z,9.91
2018-09-22T04:03:55.055Z,9.84
2018-09-22T04:06:23.977Z,9.88
2018-09-22T04:08:52.921Z,9.88
2018-09-22T04:11:21.904Z,9.92
2018-09-22T04:13:50.841Z,9.94
2018-09-22T04:16:19.810Z,9.92
2018-09-22T04:18:48.796Z,9.94
2018-09-22T04:21:17.717Z,10.05
2018-09-22T04:23:46.696Z,10.03
2018-09-22T04:26:15.676Z,9.98
2018-09-22T04:28:44.588Z,9.98
2018-09-22T04:31:13.722Z,9.96
2018-09-22T04:33:42.691Z,9.93
2018-09-22T04:36:11.536Z,9.94
2018-09-22T04:38:40.371Z,9.94
2018-09-22T04:41:09.271Z,9.93
2018-09-22T04:43:39.028Z,9.98
2018-09-22T04:46:08.007Z,10.05
2018-09-22T04:48:36.818Z,10.11
2018-09-22T04:51:06.054Z,10.09
2018-09-22T04:53:34.849Z,10.14
2018-09-22T04:56:03.741Z,10.20
2018-09-22T04:58:32.593Z,10.21
2018-09-22T05:01:01.533Z,10.15
2018-09-22T05:03:30.528Z,10.13
2018-09-22T05:05:59.588Z,10.11
2018-09-22T05:08:28.376Z,10.16
2018-09-22T05:10:57.259Z,10.24
2018-09-22T05:13:26.163Z,10.25
2018-09-22T05:15:55.145Z,10.25
2018-09-22T05:18:24.023Z,10.28
2018-09-22T05:20:52.946Z,10.24
2018-09-22T05:23:21.924Z,10.24
2018-09-22T05:25:50.921Z,10.18
2018-09-22T05:28:20.005Z,10.23
2018-09-22T05:30:48.936Z,10.33
2018-09-22T05:33:17.939Z,10.32
2018-09-22T05:35:46.903Z,10.39
2018-09-22T05:38:15.796Z,10.39
2018-09-22T05:40:44.811Z,10.39
2018-09-22T05:43:13.628Z,10.39
2018-09-22T05:45:42.518Z,10.43
2018-09-22T05:48:11.379Z,10.45
2018-09-22T05:50:40.443Z,10.49
2018-09-22T05:53:10.532Z,10.53
2018-09-22T05:55:39.528Z,10.52
2018-09-22T05:58:08.535Z,10.54
2018-09-22T06:00:39.099Z,10.60
2018-09-22T06:03:09.595Z,10.64
2018-09-22T06:05:38.759Z,10.73
2018-09-22T06:08:07.831Z,10.73
2018-09-22T06:10:37.207Z,10.79
2018-09-22T06:13:06.353Z,10.80
2018-09-22T06:15:35.326Z,10.87
2018-09-22T06:18:04.228Z,10.92
2018-09-22T06:20:33.104Z,10.98
2018-09-22T06:23:02.124Z,11.03
2018-09-22T06:25:31.044Z,11.07
2018-09-22T06:27:59.971Z,11.10
2018-09-22T06:30:28.963Z,11.14
2018-09-22T06:32:57.946Z,11.21
2018-09-22T06:35:26.847Z,11.25
2018-09-22T06:37:55.771Z,11.37
2018-09-22T06:40:24.591Z,11.49
2018-09-22T06:42:53.545Z,11.60
2018-09-22T06:45:22.538Z,11.70
2018-09-22T06:47:51.500Z,11.82
2018-09-22T06:50:20.426Z,11.82
2018-09-22T06:52:49.386Z,11.91
2018-09-22T06:55:18.381Z,11.98
2018-09-22T06:57:47.338Z,12.01
2018-09-22T07:00:16.406Z,12.09
2018-09-22T07:02:45.294Z,12.13
2018-09-22T07:05:14.277Z,12.16
2018-09-22T07:07:43.351Z,12.24
2018-09-22T07:10:12.298Z,12.32
2018-09-22T07:12:41.276Z,12.36
2018-09-22T07:15:10.320Z,12.44
2018-09-22T07:17:41.340Z,12.46
2018-09-22T07:20:10.329Z,12.52
2018-09-22T07:22:44.356Z,12.70
2018-09-22T07:25:13.402Z,12.86
2018-09-22T07:27:42.440Z,13.04
2018-09-22T07:30:11.426Z,13.15
2018-09-22T07:32:40.436Z,13.25
2018-09-22T07:35:09.425Z,13.30
2018-09-22T07:37:38.289Z,13.38
2018-09-22T07:40:07.369Z,13.48
2018-09-22T07:42:37.480Z,13.56
2018-09-22T07:45:06.411Z,13.63
2018-09-22T07:47:35.432Z,13.60
2018-09-22T07:50:04.423Z,13.67
2018-09-22T07:52:33.427Z,13.79
2018-09-22T07:55:02.357Z,13.83
2018-09-22T07:57:31.545Z,13.94
2018-09-22T08:00:00.592Z,14.13
2018-09-22T08:02:29.498Z,14.38
2018-09-22T08:04:58.436Z,14.49
2018-09-22T08:07:27.336Z,14.44
2018-09-22T08:09:56.274Z,14.38
2018-09-22T08:12:25.373Z,14.47
2018-09-22T08:14:54.413Z,14.63
2018-09-22T08:17:23.469Z,14.60
2018-09-22T08:19:52.400Z,14.73
2018-09-22T08:22:21.395Z,14.93
2018-09-22T08:24:50.422Z,14.92
2018-09-22T08:27:19.445Z,14.91
2018-09-22T08:29:48.515Z,14.82
2018-09-22T08:32:17.453Z,14.74
2018-09-22T08:34:46.463Z,14.60
2018-09-22T08:37:15.459Z,14.59
2018-09-22T08:39:44.297Z,14.51
2018-09-22T08:42:13.291Z,14.53
2018-09-22T08:44:42.283Z,14.50
2018-09-22T08:47:11.288Z,14.49
2018-09-22T08:49:40.318Z,14.57
2018-09-22T08:52:09.254Z,14.71
2018-09-22T08:54:38.283Z,14.87
2018-09-22T08:57:07.291Z,14.85
2018-09-22T08:59:36.348Z,15.05
2018-09-22T09:02:05.283Z,14.99
2018-09-22T09:04:34.295Z,15.31
2018-09-22T09:07:03.297Z,15.61
2018-09-22T09:09:32.309Z,15.84
2018-09-22T09:12:01.387Z,16.08
2018-09-22T09:14:30.355Z,16.43
2018-09-22T09:16:59.271Z,16.72
2018-09-22T09:19:28.133Z,16.91
2018-09-22T09:21:57.025Z,17.07
2018-09-22T09:24:25.934Z,17.09
2018-09-22T09:26:54.911Z,17.23
2018-09-22T09:29:23.987Z,17.38
2018-09-22T09:31:52.964Z,17.61
2018-09-22T09:34:21.976Z,17.67
2018-09-22T09:36:50.892Z,17.53
2018-09-22T09:39:19.879Z,17.55
2018-09-22T09:41:48.827Z,17.62
2018-09-22T09:44:17.844Z,17.74
2018-09-22T09:46:46.755Z,17.77
2018-09-22T09:49:15.802Z,17.52
2018-09-22T09:51:44.812Z,17.60
2018-09-22T09:54:13.858Z,17.65
2018-09-22T09:56:42.893Z,17.77
2018-09-22T09:59:11.853Z,17.81
2018-09-22T10:01:40.827Z,17.70
2018-09-22T10:04:09.856Z,17.94
2018-09-22T10:06:38.868Z,17.92
2018-09-22T10:09:09.234Z,17.93
2018-09-22T10:11:38.282Z,18.10
2018-09-22T10:14:07.254Z,18.22
2018-09-22T10:16:36.311Z,18.12
2018-09-22T10:19:05.560Z,18.03
2018-09-22T10:21:34.479Z,17.89
2018-09-22T10:24:03.555Z,18.21
2018-09-22T10:26:32.493Z,18.45
2018-09-22T10:29:01.548Z,18.59
2018-09-22T10:31:30.534Z,18.67
2018-09-22T10:33:59.508Z,18.36
2018-09-22T10:36:28.476Z,17.95
2018-09-22T10:38:57.528Z,18.07
2018-09-22T10:41:26.586Z,18.26
2018-09-22T10:43:55.619Z,18.29
2018-09-22T10:46:24.632Z,18.31
2018-09-22T10:48:53.531Z,18.44
2018-09-22T10:51:22.537Z,18.12
2018-09-22T10:53:51.543Z,18.29
2018-09-22T10:56:20.409Z,18.57
2018-09-22T10:58:49.331Z,18.57
2018-09-22T11:01:18.222Z,18.87
2018-09-22T11:03:49.281Z,18.85
2018-09-22T11:06:18.224Z,18.97
2018-09-22T11:08:47.271Z,19.22
2018-09-22T11:11:16.244Z,18.79
2018-09-22T11:13:46.173Z,18.56
2018-09-22T11:16:15.032Z,18.26
2018-09-22T11:18:44.069Z,18.37
2018-09-22T11:21:12.981Z,18.64
2018-09-22T11:23:43.941Z,18.71
2018-09-22T11:26:12.878Z,18.60
2018-09-22T11:28:41.832Z,18.37
2018-09-22T11:31:10.732Z,18.45
2018-09-22T11:33:40.680Z,18.65
2018-09-22T11:36:09.593Z,18.49
2018-09-22T11:38:38.532Z,18.24
2018-09-22T11:41:07.437Z,18.20
2018-09-22T11:43:36.322Z,18.44
2018-09-22T11:46:05.381Z,18.74
2018-09-22T11:48:34.408Z,19.15
2018-09-22T11:51:03.433Z,19.57
2018-09-22T11:53:33.557Z,19.35
2018-09-22T11:56:02.561Z,19.48
2018-09-22T11:58:31.441Z,19.51
2018-09-22T12:01:00.433Z,19.51
2018-09-22T12:03:30.453Z,19.93
2018-09-22T12:05:59.515Z,19.74
2018-09-22T12:08:28.429Z,18.98
2018-09-22T12:10:57.360Z,19.21
2018-09-22T12:13:27.313Z,18.97
2018-09-22T12:15:56.400Z,18.70
2018-09-22T12:18:25.316Z,18.82
2018-09-22T12:20:54.291Z,18.99
2018-09-22T12:23:23.195Z,18.72
2018-09-22T12:25:52.177Z,19.09
2018-09-22T12:28:21.071Z,19.19
2018-09-22T12:30:50.233Z,19.35
2018-09-22T12:33:19.108Z,19.30
2018-09-22T12:35:48.129Z,18.92
2018-09-22T12:38:17.104Z,18.80
2018-09-22T12:40:45.999Z,18.67
2018-09-22T12:43:15.873Z,18.84
2018-09-22T12:45:44.764Z,18.83
2018-09-22T12:48:13.688Z,18.88
2018-09-22T12:50:42.522Z,18.67
2018-09-22T12:53:11.568Z,18.74
2018-09-22T12:55:40.575Z,18.97
2018-09-22T12:58:09.423Z,19.17
2018-09-22T13:00:38.311Z,19.27
2018-09-22T13:03:07.353Z,19.18
2018-09-22T13:05:36.325Z,19.10
2018-09-22T13:08:05.188Z,19.13
2018-09-22T13:10:34.083Z,19.18
2018-09-22T13:13:03.145Z,18.73
2018-09-22T13:15:32.192Z,18.38
2018-09-22T13:18:01.005Z,18.10
2018-09-22T13:20:29.893Z,17.89
2018-09-22T13:22:59.839Z,17.79
2018-09-22T13:25:29.927Z,17.74
2018-09-22T13:27:58.852Z,17.74
2018-09-22T13:30:27.910Z,17.64
2018-09-22T13:32:56.888Z,17.63
2018-09-22T13:35:25.956Z,17.77
2018-09-22T13:37:54.776Z,17.95
2018-09-22T13:40:23.824Z,17.71
2018-09-22T13:42:52.841Z,17.61
2018-09-22T13:45:23.806Z,17.94
2018-09-22T13:47:52.688Z,17.91
2018-09-22T13:50:21.694Z,18.01
2018-09-22T13:52:50.547Z,17.90
2018-09-22T13:55:20.595Z,18.17
2018-09-22T13:57:49.498Z,18.04
2018-09-22T14:00:18.404Z,17.92
2018-09-22T14:02:47.248Z,17.87
2018-09-22T14:05:17.113Z,17.78
2018-09-22T14:07:45.973Z,17.90
2018-09-22T14:10:15.138Z,17.92
2018-09-22T14:12:43.936Z,17.89
2018-09-22T14:15:13.824Z,17.94
2018-09-22T14:17:42.779Z,18.02
2018-09-22T14:20:11.761Z,18.00
2018-09-22T14:22:40.631Z,17.88
2018-09-22T14:25:10.769Z,17.91
2018-09-22T14:27:39.596Z,17.83
2018-09-22T14:30:08.664Z,17.71
2018-09-22T14:32:37.605Z,17.53
2018-09-22T14:35:07.769Z,17.31
2018-09-22T14:37:36.638Z,16.81
2018-09-22T14:40:05.729Z,16.14
2018-09-22T14:42:34.609Z,15.50
2018-09-22T14:45:05.132Z,15.25
2018-09-22T14:47:33.977Z,15.16
2018-09-22T14:50:03.052Z,15.08
2018-09-22T14:52:31.929Z,15.10
2018-09-22T14:55:00.905Z,14.18
2018-09-22T14:57:29.772Z,13.33
2018-09-22T14:59:58.610Z,12.81
2018-09-22T15:02:27.632Z,12.44
2018-09-22T15:04:56.606Z,12.16
2018-09-22T15:07:25.642Z,11.91
2018-09-22T15:09:54.548Z,11.74
2018-09-22T15:12:23.499Z,11.56
2018-09-22T15:14:52.384Z,11.44
2018-09-22T15:17:21.369Z,11.40
2018-09-22T15:19:50.150Z,11.32
2018-09-22T15:22:19.087Z,11.33
2018-09-22T15:24:48.073Z,11.34
2018-09-22T15:27:17.788Z,11.24
2018-09-22T15:29:46.684Z,11.25
2018-09-22T15:32:15.657Z,11.25
2018-09-22T15:34:44.663Z,11.20
2018-09-22T15:37:13.631Z,11.19
2018-09-22T15:39:42.498Z,11.16
2018-09-22T15:42:11.404Z,11.16
2018-09-22T15:44:40.473Z,11.09
2018-09-22T15:47:09.480Z,11.00
2018-09-22T15:49:38.338Z,10.93
2018-09-22T15:52:07.461Z,10.90
2018-09-22T15:54:37.709Z,10.89
2018-09-22T15:57:06.606Z,11.00
2018-09-22T15:59:35.468Z,11.01
2018-09-22T16:02:04.408Z,11.01
2018-09-22T16:04:33.345Z,10.96
2018-09-22T16:07:02.319Z,11.03
2018-09-22T16:09:31.216Z,10.98
2018-09-22T16:13:01.825Z,11.00
2018-09-22T16:15:30.826Z,11.03
2018-09-22T16:17:59.776Z,11.03
2018-09-22T16:20:28.679Z,11.04
2018-09-22T16:22:57.643Z,11.05
2018-09-22T16:25:26.716Z,11.03
2018-09-22T16:27:55.664Z,11.01
2018-09-22T16:30:24.618Z,11.04
2018-09-22T16:32:53.577Z,11.03
2018-09-22T16:35:22.719Z,11.05
2018-09-22T16:37:51.825Z,11.06
2018-09-22T16:40:20.739Z,11.10
2018-09-22T16:42:49.816Z,11.15
2018-09-22T16:45:18.796Z,11.14
2018-09-22T16:47:47.708Z,11.09
2018-09-22T16:50:16.665Z,11.03
2018-09-22T16:52:45.623Z,10.98
2018-09-22T16:55:15.622Z,10.95
2018-09-22T16:57:44.499Z,10.96
2018-09-22T17:00:13.415Z,10.97
2018-09-22T17:02:42.301Z,10.94
2018-09-22T17:05:12.318Z,10.95
2018-09-22T17:07:41.217Z,10.95
2018-09-22T17:10:10.184Z,10.99
2018-09-22T17:12:39.159Z,11.01
2018-09-22T17:15:09.108Z,11.04
2018-09-22T17:17:38.290Z,11.03
2018-09-22T17:20:07.149Z,11.02
2018-09-22T17:22:36.234Z,11.04
2018-09-22T17:25:05.355Z,11.00
2018-09-22T17:27:34.271Z,10.94
2018-09-22T17:30:03.129Z,10.93
2018-09-22T17:32:32.114Z,10.91
2018-09-22T17:35:03.096Z,10.92
2018-09-22T17:37:32.040Z,10.93
2018-09-22T17:40:00.877Z,10.93
2018-09-22T17:42:30.086Z,10.93
2018-09-22T17:44:59.197Z,10.93
2018-09-22T17:47:28.109Z,10.89
2018-09-22T17:49:56.978Z,10.87
2018-09-22T17:52:25.910Z,10.88
2018-09-22T17:54:54.850Z,10.88
2018-09-22T17:57:23.764Z,10.89
2018-09-22T17:59:52.735Z,10.86
2018-09-22T18:02:21.672Z,10.87
2018-09-22T18:04:51.630Z,10.92
2018-09-22T18:07:20.499Z,10.98
2018-09-22T18:09:49.329Z,10.95
2018-09-22T18:12:18.374Z,10.94
2018-09-22T18:14:47.371Z,10.90
2018-09-22T18:17:16.233Z,10.89
2018-09-22T18:19:45.158Z,10.94
2018-09-22T18:22:14.125Z,10.91
2018-09-22T18:24:43.212Z,10.90
2018-09-22T18:27:12.097Z,10.91
2018-09-22T18:29:41.037Z,10.91
2018-09-22T18:32:09.915Z,10.89
2018-09-22T18:34:39.136Z,10.89
2018-09-22T18:37:08.009Z,10.89
2018-09-22T18:39:37.055Z,10.88
2018-09-22T18:42:05.898Z,10.92
2018-09-22T18:44:34.895Z,10.93
2018-09-22T18:47:03.868Z,10.91
2018-09-22T18:49:32.763Z,10.94
2018-09-22T18:52:01.743Z,10.93
2018-09-22T18:54:30.676Z,10.89
2018-09-22T18:56:59.530Z,10.93
2018-09-22T18:59:28.529Z,10.91
2018-09-22T19:01:57.388Z,10.92
2018-09-22T19:04:26.338Z,10.92
2018-09-22T19:06:56.272Z,10.93
2018-09-22T19:09:25.219Z,10.95
2018-09-22T19:11:54.076Z,10.92
2018-09-22T19:14:28.054Z,10.96
2018-09-22T19:17:01.311Z,10.90
2018-09-22T19:19:36.835Z,10.89
2018-09-22T19:22:07.597Z,10.88
2018-09-22T19:24:40.624Z,10.87
2018-09-22T19:27:16.051Z,10.84
2018-09-22T19:29:50.041Z,10.85
2018-09-22T19:32:22.829Z,10.84
2018-09-22T19:35:01.929Z,10.82
2018-09-22T19:39:37.117Z,10.85
2018-09-22T19:42:14.328Z,10.79
2018-09-22T19:44:51.371Z,10.82
2018-09-22T19:47:29.649Z,10.79
2018-09-22T19:50:01.030Z,10.75
2018-09-22T19:52:35.004Z,10.74
2018-09-22T19:55:03.957Z,10.73
2018-09-22T19:57:32.984Z,10.75
2018-09-22T20:00:01.866Z,10.74
2018-09-22T20:02:30.843Z,10.74
2018-09-22T20:04:59.828Z,10.77
2018-09-22T20:07:28.669Z,10.75
2018-09-22T20:09:57.550Z,10.73
2018-09-22T20:12:26.487Z,10.78
2018-09-22T20:14:55.443Z,10.79
2018-09-22T20:17:24.341Z,10.81
2018-09-22T20:19:53.455Z,10.80
2018-09-22T20:22:22.464Z,10.81
2018-09-22T20:24:51.383Z,10.81
2018-09-22T20:27:20.296Z,10.82
2018-09-22T20:29:49.265Z,10.82
2018-09-22T20:32:18.190Z,10.81
2018-09-22T20:34:47.177Z,10.80
2018-09-22T20:37:16.093Z,10.82
2018-09-22T20:39:45.124Z,10.82
2018-09-22T20:42:14.047Z,10.82
2018-09-22T20:44:43.157Z,10.84
2018-09-22T20:47:12.027Z,10.84
2018-09-22T20:49:40.930Z,10.84
2018-09-22T20:52:09.816Z,10.79
2018-09-22T20:54:38.780Z,10.78
2018-09-22T20:57:07.796Z,10.78
2018-09-22T20:59:36.788Z,10.79
2018-09-22T21:02:05.797Z,10.79
2018-09-22T21:04:34.710Z,10.77
2018-09-22T21:07:03.620Z,10.77
2018-09-22T21:09:32.536Z,10.79
2018-09-22T21:12:01.472Z,10.80
2018-09-22T21:14:30.320Z,10.79
2018-09-22T21:17:00.277Z,10.79
2018-09-22T21:19:29.227Z,10.76
2018-09-22T21:21:58.085Z,10.76
2018-09-22T21:24:26.910Z,10.76
2018-09-22T21:26:55.910Z,10.78
2018-09-22T21:29:24.708Z,10.76
2018-09-22T21:31:53.591Z,10.78
2018-09-22T21:34:22.464Z,10.75
2018-09-22T21:36:51.383Z,10.73
2018-09-22T21:39:20.329Z,10.71
2018-09-22T21:41:49.339Z,10.72
2018-09-22T21:44:18.144Z,10.70
2018-09-22T21:46:47.111Z,10.71
2018-09-22T21:49:15.964Z,10.71
2018-09-22T21:51:44.951Z,10.67
2018-09-22T21:54:13.885Z,10.65
2018-09-22T21:56:42.900Z,10.62
2018-09-22T21:59:11.887Z,10.63
2018-09-22T22:01:41.961Z,10.61
2018-09-22T22:04:11.699Z,10.62
2018-09-22T22:06:40.658Z,10.63
2018-09-22T22:09:11.745Z,10.63
2018-09-22T22:11:41.064Z,10.63
2018-09-22T22:14:10.627Z,10.63
2018-09-22T22:16:40.267Z,10.63
2018-09-22T22:19:09.416Z,10.63
2018-09-22T22:21:38.432Z,10.63
2018-09-22T22:24:07.493Z,10.65
2018-09-22T22:26:36.361Z,10.67
2018-09-22T22:29:06.355Z,10.69
2018-09-22T22:31:35.347Z,10.69
2018-09-22T22:34:04.249Z,10.73
2018-09-22T22:36:33.227Z,10.73
2018-09-22T22:39:02.157Z,10.72
2018-09-22T22:41:31.132Z,10.70
2018-09-22T22:44:00.147Z,10.68
2018-09-22T22:46:29.090Z,10.64
2018-09-22T22:48:57.921Z,10.65
2018-09-22T22:51:26.865Z,10.67
2018-09-22T22:53:55.750Z,10.64
2018-09-22T22:56:24.628Z,10.62
2018-09-22T22:58:53.475Z,10.61
2018-09-22T23:01:22.469Z,10.61
2018-09-22T23:03:51.307Z,10.59
2018-09-22T23:06:20.441Z,10.59
2018-09-22T23:08:49.310Z,10.58
2018-09-22T23:11:18.191Z,10.59
2018-09-22T23:13:47.036Z,10.62
2018-09-22T23:16:16.905Z,10.62
2018-09-22T23:18:45.813Z,10.63
2018-09-22T23:21:14.732Z,10.63
2018-09-22T23:23:43.697Z,10.64
2018-09-22T23:26:13.160Z,10.64
2018-09-22T23:28:42.033Z,10.64
2018-09-22T23:31:11.012Z,10.61
2018-09-22T23:33:40.015Z,10.65
2018-09-22T23:36:08.909Z,10.64
2018-09-22T23:38:37.808Z,10.64
2018-09-22T23:41:06.998Z,10.64
2018-09-22T23:43:35.936Z,10.66
2018-09-22T23:46:04.979Z,10.67
2018-09-22T23:48:33.948Z,10.67
2018-09-22T23:51:02.739Z,10.68
2018-09-22T23:53:31.768Z,10.68
2018-09-22T23:56:00.655Z,10.71
2018-09-22T23:58:29.556Z,10.72
